Time;durP1;ratioP1;P1;durP2;ratioP2;P2;SDS_P1;SDS_P2;PMS_P1;PMS_P2;Temp;Humidity;BMP_temperature;BMP_pressure;BME280_temperature;BME280_humidity;BME280_pressure;Samples;Min_cycle;Max_cycle;Signal;HPM_P1;HPM_P2
2023/06/29 00:01:04;;;;;;;4.30;3.90;;;18.00;99.90;;;;;;6148974;23;20926;-79
2023/06/29 00:03:32;;;;;;;2.67;2.47;;;18.00;99.90;;;;;;6148449;23;21051;-78
2023/06/29 00:05:59;;;;;;;3.57;3.30;;;18.00;99.90;;;;;;6148738;23;20477;-78
2023/06/29 00:08:26;;;;;;;2.90;2.70;;;18.00;99.90;;;;;;6148931;23;20386;-81
2023/06/29 00:10:53;;;;;;;3.50;2.93;;;18.00;99.90;;;;;;6122465;23;20413;-81
2023/06/29 00:13:19;;;;;;;3.10;2.80;;;18.00;99.90;;;;;;6149274;23;20943;-78
2023/06/29 00:15:45;;;;;;;3.33;2.83;;;18.00;99.90;;;;;;6148426;23;20401;-81
2023/06/29 00:18:13;;;;;;;2.93;2.73;;;18.00;99.90;;;;;;6122715;23;20395;-81
2023/06/29 00:20:39;;;;;;;4.50;3.53;;;18.10;99.90;;;;;;6147972;23;20412;-81
2023/06/29 00:23:05;;;;;;;2.90;2.70;;;18.10;99.90;;;;;;6149010;23;20467;-78
2023/06/29 00:25:32;;;;;;;3.00;2.80;;;18.10;99.90;;;;;;6148130;23;20385;-82
2023/06/29 00:27:58;;;;;;;3.53;3.20;;;18.10;99.90;;;;;;6121767;23;20489;-78
2023/06/29 00:30:23;;;;;;;4.50;3.03;;;18.10;99.90;;;;;;6122336;23;20386;-79
2023/06/29 00:32:49;;;;;;;3.40;3.10;;;18.10;99.90;;;;;;6148946;23;20434;-82
2023/06/29 00:35:15;;;;;;;3.10;2.67;;;18.20;99.90;;;;;;6148689;23;20807;-81
2023/06/29 00:37:42;;;;;;;3.10;2.90;;;18.20;99.90;;;;;;6148572;23;20616;-81
2023/06/29 00:40:09;;;;;;;3.00;2.80;;;18.20;99.90;;;;;;6148289;23;20264;-81
2023/06/29 00:42:35;;;;;;;3.60;3.10;;;18.20;99.90;;;;;;6148835;23;20460;-78
2023/06/29 00:45:02;;;;;;;3.33;3.07;;;18.20;99.90;;;;;;6147870;23;20859;-78
2023/06/29 00:47:29;;;;;;;2.80;2.60;;;18.20;99.90;;;;;;6148502;23;20437;-78
2023/06/29 00:49:56;;;;;;;3.37;2.70;;;18.20;99.90;;;;;;6148188;23;20382;-78
2023/06/29 00:52:22;;;;;;;3.27;3.03;;;18.20;99.90;;;;;;6148961;23;20406;-78
2023/06/29 00:54:48;;;;;;;2.93;2.73;;;18.30;99.90;;;;;;6148328;23;20563;-78
2023/06/29 00:57:14;;;;;;;3.40;3.10;;;18.30;99.90;;;;;;6148752;23;20759;-81
2023/06/29 00:59:39;;;;;;;3.20;2.90;;;18.30;99.90;;;;;;6148543;23;20391;-78
2023/06/29 01:02:05;;;;;;;3.10;2.90;;;18.30;99.90;;;;;;6148432;23;20174;-80
2023/06/29 01:04:33;;;;;;;3.60;3.30;;;18.30;99.90;;;;;;6148231;23;20159;-81
2023/06/29 01:07:10;;;;;;;3.20;3.00;;;18.30;99.90;;;;;;6148145;23;20323;-78
2023/06/29 01:09:37;;;;;;;3.27;2.97;;;18.30;99.90;;;;;;6122346;23;20489;-81
2023/06/29 01:12:04;;;;;;;3.10;2.90;;;18.40;99.90;;;;;;6148542;23;20399;-78
2023/06/29 01:14:31;;;;;;;3.50;3.20;;;18.40;99.90;;;;;;6121886;23;20456;-81
2023/06/29 01:16:58;;;;;;;4.00;3.10;;;18.40;99.90;;;;;;6148213;23;20414;-81
2023/06/29 01:19:28;;;;;;;3.60;3.30;;;18.40;99.90;;;;;;6148667;23;20398;-79
2023/06/29 01:22:03;;;;;;;3.37;3.17;;;18.40;99.90;;;;;;6147638;23;20435;-78
2023/06/29 01:24:38;;;;;;;3.40;3.10;;;18.30;99.90;;;;;;6121877;23;20399;-78
2023/06/29 01:27:05;;;;;;;3.40;3.20;;;18.30;99.90;;;;;;6122790;23;20603;-81
2023/06/29 01:29:31;;;;;;;3.00;2.60;;;18.40;99.90;;;;;;6121702;23;20401;-78
2023/06/29 01:31:59;;;;;;;3.40;3.10;;;18.40;99.90;;;;;;6149896;23;20665;-81
2023/06/29 01:34:28;;;;;;;3.70;3.40;;;18.40;99.90;;;;;;6150168;23;20437;-81
2023/06/29 01:37:01;;;;;;;3.67;3.37;;;18.40;99.90;;;;;;6123930;23;20414;-81
2023/06/29 01:39:29;;;;;;;3.20;2.90;;;18.40;99.90;;;;;;6149901;23;20424;-79
2023/06/29 01:41:56;;;;;;;3.37;3.07;;;18.40;99.90;;;;;;6150147;23;20404;-81
2023/06/29 01:44:22;;;;;;;2.90;2.70;;;18.30;99.90;;;;;;6150306;23;20718;-78
2023/06/29 01:46:48;;;;;;;3.80;3.50;;;18.30;99.90;;;;;;6149879;23;20786;-81
2023/06/29 01:49:14;;;;;;;2.77;2.57;;;18.30;99.90;;;;;;6149539;23;20220;-81
2023/06/29 01:51:40;;;;;;;3.77;3.47;;;18.30;99.90;;;;;;6123724;23;20398;-78
2023/06/29 01:54:05;;;;;;;3.47;3.13;;;18.30;99.90;;;;;;6149493;23;20541;-80
2023/06/29 01:56:31;;;;;;;3.67;3.37;;;18.30;99.90;;;;;;6150222;23;20571;-78
2023/06/29 01:58:57;;;;;;;3.20;3.00;;;18.30;99.90;;;;;;6150018;23;20184;-82
2023/06/29 02:01:22;;;;;;;3.97;3.67;;;18.30;99.90;;;;;;6150189;23;20178;-82
2023/06/29 02:03:48;;;;;;;3.90;3.50;;;18.30;99.90;;;;;;6149318;23;20162;-81
2023/06/29 02:06:14;;;;;;;3.90;3.60;;;18.30;99.90;;;;;;6149699;23;20252;-78
2023/06/29 02:08:42;;;;;;;3.47;3.17;;;18.30;99.90;;;;;;6149469;23;20627;-78
2023/06/29 02:11:08;;;;;;;4.30;3.87;;;18.30;99.90;;;;;;6123548;23;20407;-78
2023/06/29 02:13:33;;;;;;;3.63;3.30;;;18.30;99.90;;;;;;6149912;23;20486;-81
2023/06/29 02:15:59;;;;;;;3.80;3.50;;;18.30;99.90;;;;;;6149796;23;20463;-81
2023/06/29 02:18:24;;;;;;;4.53;3.43;;;18.20;99.90;;;;;;6123737;23;20343;-81
2023/06/29 02:20:51;;;;;;;4.03;3.73;;;18.20;99.90;;;;;;6122054;23;20709;-81
2023/06/29 02:23:16;;;;;;;4.07;3.63;;;18.20;99.90;;;;;;6150074;23;20204;-81
2023/06/29 02:25:42;;;;;;;4.17;3.87;;;18.20;99.90;;;;;;6149260;23;20412;-78
2023/06/29 02:28:08;;;;;;;3.87;3.57;;;18.10;99.90;;;;;;6122358;23;20761;-81
2023/06/29 02:30:33;;;;;;;4.37;3.97;;;18.10;99.90;;;;;;6123405;23;20569;-79
2023/06/29 02:32:59;;;;;;;4.80;4.40;;;18.10;99.90;;;;;;6149643;23;20271;-81
2023/06/29 02:35:24;;;;;;;4.10;3.80;;;18.10;99.90;;;;;;6149392;23;20314;-81
2023/06/29 02:37:50;;;;;;;4.77;3.90;;;18.00;99.90;;;;;;6149303;23;20483;-81
2023/06/29 02:40:16;;;;;;;4.70;4.30;;;17.90;99.90;;;;;;6149288;23;20163;-79
2023/06/29 02:42:41;;;;;;;5.70;5.03;;;17.90;99.90;;;;;;6123083;23;20255;-78
2023/06/29 02:45:07;;;;;;;4.10;3.80;;;17.80;99.90;;;;;;6122832;23;20194;-79
2023/06/29 02:47:33;;;;;;;4.07;3.77;;;17.70;99.90;;;;;;6149572;23;20556;-81
2023/06/29 02:49:59;;;;;;;5.00;4.20;;;17.60;99.90;;;;;;6149223;23;20392;-81
2023/06/29 02:52:25;;;;;;;4.20;3.80;;;17.60;99.90;;;;;;6149475;23;20634;-78
2023/06/29 02:54:51;;;;;;;3.80;3.50;;;17.60;99.90;;;;;;6148769;23;20447;-81
2023/06/29 02:57:17;;;;;;;4.03;3.73;;;17.60;99.90;;;;;;6123163;23;20540;-81
2023/06/29 02:59:42;;;;;;;3.80;3.50;;;17.50;99.90;;;;;;6149202;23;20228;-78
2023/06/29 03:02:08;;;;;;;4.53;3.80;;;17.50;99.90;;;;;;6123029;23;20179;-78
2023/06/29 03:04:33;;;;;;;4.20;3.90;;;17.50;99.90;;;;;;6122836;23;20223;-78
2023/06/29 03:06:59;;;;;;;4.10;3.80;;;17.60;99.90;;;;;;6149046;23;20176;-81
2023/06/29 03:09:25;;;;;;;4.27;3.93;;;17.70;99.90;;;;;;6122708;23;20164;-81
2023/06/29 03:11:50;;;;;;;4.20;3.80;;;17.80;99.90;;;;;;6149023;23;20608;-78
2023/06/29 03:14:16;;;;;;;4.10;3.70;;;17.90;99.90;;;;;;6122823;23;20533;-81
2023/06/29 03:16:42;;;;;;;4.27;3.87;;;17.90;99.90;;;;;;6123279;23;20188;-81
2023/06/29 03:19:08;;;;;;;3.50;3.20;;;17.90;99.90;;;;;;6149393;23;20188;-81
2023/06/29 03:21:33;;;;;;;4.13;3.73;;;17.90;99.90;;;;;;6148723;23;20301;-79
2023/06/29 03:23:59;;;;;;;5.90;3.47;;;17.90;99.90;;;;;;6122885;23;20200;-78
2023/06/29 03:26:25;;;;;;;4.13;3.57;;;17.90;99.90;;;;;;6148942;23;20256;-78
2023/06/29 03:28:50;;;;;;;4.27;3.73;;;17.90;99.90;;;;;;6121270;23;20402;-80
2023/06/29 03:31:16;;;;;;;3.83;3.53;;;18.00;99.90;;;;;;6123216;23;20189;-78
2023/06/29 03:33:43;;;;;;;3.63;3.20;;;18.00;99.90;;;;;;6148216;23;20828;-78
2023/06/29 03:36:11;;;;;;;3.57;3.27;;;18.00;99.90;;;;;;6148459;23;20186;-78
2023/06/29 03:38:37;;;;;;;4.40;4.00;;;18.10;99.90;;;;;;6148993;23;20742;-78
2023/06/29 03:41:03;;;;;;;5.83;4.57;;;18.10;99.90;;;;;;6122674;23;20710;-78
2023/06/29 03:43:28;;;;;;;3.57;3.27;;;18.10;99.90;;;;;;6148639;23;20457;-78
2023/06/29 03:45:57;;;;;;;3.60;3.30;;;18.10;99.90;;;;;;6148451;23;20233;-82
2023/06/29 03:48:27;;;;;;;4.30;3.67;;;18.10;99.90;;;;;;6148519;23;20523;-78
2023/06/29 03:50:53;;;;;;;5.43;3.80;;;18.10;99.90;;;;;;6148610;23;20798;-78
2023/06/29 03:53:19;;;;;;;3.43;3.10;;;18.20;99.90;;;;;;6122475;23;20457;-78
2023/06/29 03:55:45;;;;;;;5.03;4.57;;;18.20;99.90;;;;;;6122297;23;20406;-80
2023/06/29 03:58:11;;;;;;;4.50;4.00;;;18.20;99.90;;;;;;6122474;23;20171;-79
2023/06/29 04:00:36;;;;;;;3.53;3.23;;;18.20;99.90;;;;;;6148461;23;20152;-79
2023/06/29 04:03:02;;;;;;;5.03;3.20;;;18.30;99.90;;;;;;6122476;23;20161;-79
2023/06/29 04:05:27;;;;;;;4.73;3.70;;;18.30;99.90;;;;;;6147923;23;20163;-79
2023/06/29 04:07:53;;;;;;;3.47;3.17;;;18.40;99.90;;;;;;6148561;23;20212;-78
2023/06/29 04:10:19;;;;;;;3.87;3.47;;;18.40;99.90;;;;;;6147751;23;20223;-79
2023/06/29 04:12:45;;;;;;;4.40;4.00;;;18.40;99.90;;;;;;6148667;23;20162;-79
2023/06/29 04:15:10;;;;;;;4.03;3.67;;;18.50;99.90;;;;;;6122397;23;20174;-79
2023/06/29 04:17:36;;;;;;;8.00;5.73;;;18.50;99.90;;;;;;6148938;23;20187;-78
2023/06/29 04:20:03;;;;;;;11.17;7.97;;;18.60;99.90;;;;;;6147834;23;20227;-78
2023/06/29 04:22:28;;;;;;;5.57;5.07;;;18.60;99.90;;;;;;6147650;23;20498;-79
2023/06/29 04:24:54;;;;;;;4.33;3.93;;;18.70;99.90;;;;;;6145768;23;20383;-78
2023/06/29 04:27:20;;;;;;;4.53;3.80;;;18.70;99.90;;;;;;6145442;23;20184;-78
2023/06/29 04:29:45;;;;;;;4.47;4.17;;;18.80;99.90;;;;;;6144621;23;20155;-79
2023/06/29 04:32:11;;;;;;;5.97;4.00;;;18.80;99.90;;;;;;6146771;23;20193;-78
2023/06/29 04:34:37;;;;;;;4.37;3.97;;;18.90;99.90;;;;;;6146583;23;20605;-79
2023/06/29 04:37:02;;;;;;;4.00;3.63;;;19.00;99.90;;;;;;6146346;23;20173;-78
2023/06/29 04:39:28;;;;;;;5.23;4.30;;;19.00;99.90;;;;;;6146760;23;20171;-79
2023/06/29 04:42:01;;;;;;;3.57;3.27;;;19.00;99.90;;;;;;6120831;23;20478;-78
2023/06/29 04:44:31;;;;;;;6.30;4.20;;;19.10;99.90;;;;;;6147577;23;20151;-79
2023/06/29 04:47:00;;;;;;;4.67;4.27;;;19.10;99.90;;;;;;6147448;23;20399;-79
2023/06/29 04:49:32;;;;;;;4.50;4.10;;;19.20;99.90;;;;;;6144890;23;20431;-78
2023/06/29 04:52:00;;;;;;;4.20;3.90;;;19.30;99.90;;;;;;6146949;23;20867;-79
2023/06/29 04:54:29;;;;;;;4.90;4.50;;;19.30;99.90;;;;;;6120596;23;20440;-79
2023/06/29 04:56:56;;;;;;;5.67;3.90;;;19.40;99.90;;;;;;6120725;23;20413;-79
2023/06/29 04:59:24;;;;;;;3.63;3.33;;;19.50;99.90;;;;;;6146671;23;20809;-79
2023/06/29 05:01:50;;;;;;;4.60;4.20;;;19.60;99.90;;;;;;6146808;23;20432;-79
2023/06/29 05:04:16;;;;;;;3.90;3.60;;;19.60;99.90;;;;;;6147465;23;20521;-79
2023/06/29 05:06:42;;;;;;;4.47;3.90;;;19.70;99.90;;;;;;6147649;23;20177;-79
2023/06/29 05:09:08;;;;;;;3.87;3.30;;;19.80;99.90;;;;;;6147706;23;20376;-79
2023/06/29 05:11:34;;;;;;;3.60;3.30;;;19.90;99.90;;;;;;6121778;23;20182;-79
2023/06/29 05:14:00;;;;;;;3.50;3.20;;;20.00;99.90;;;;;;6147917;23;20195;-79
2023/06/29 05:16:26;;;;;;;6.60;3.63;;;20.10;99.90;;;;;;6121800;23;20695;-79
2023/06/29 05:18:52;;;;;;;5.83;3.10;;;20.10;99.90;;;;;;6146963;23;20392;-79
2023/06/29 05:21:17;;;;;;;3.80;3.50;;;20.10;99.90;;;;;;6146544;23;20397;-79
2023/06/29 05:23:43;;;;;;;4.00;3.60;;;20.20;99.90;;;;;;6148149;23;20466;-79
2023/06/29 05:26:10;;;;;;;4.10;3.70;;;20.30;99.90;;;;;;6120520;23;20211;-79
2023/06/29 05:28:36;;;;;;;3.53;3.23;;;20.40;99.90;;;;;;6147965;23;20440;-79
2023/06/29 05:31:01;;;;;;;3.70;2.90;;;20.50;99.90;;;;;;6148282;23;20185;-79
2023/06/29 05:33:27;;;;;;;3.73;3.03;;;20.50;99.90;;;;;;6148582;23;20198;-78
2023/06/29 05:35:53;;;;;;;3.43;3.17;;;20.60;99.90;;;;;;6122727;23;20183;-80
2023/06/29 05:38:19;;;;;;;3.80;3.33;;;20.70;99.90;;;;;;6119618;23;20408;-81
2023/06/29 05:40:44;;;;;;;3.40;3.20;;;20.80;99.90;;;;;;6120161;23;20199;-77
2023/06/29 05:43:10;;;;;;;3.40;3.10;;;20.80;99.90;;;;;;6148403;23;20554;-81
2023/06/29 05:45:36;;;;;;;3.50;3.13;;;20.90;99.90;;;;;;6118653;23;20171;-80
2023/06/29 05:48:03;;;;;;;6.73;3.20;;;21.00;99.90;;;;;;6118531;23;20198;-80
2023/06/29 05:50:28;;;;;;;3.03;2.83;;;21.10;99.90;;;;;;6118314;23;20736;-81
2023/06/29 05:52:54;;;;;;;3.13;2.93;;;21.10;99.90;;;;;;6148138;23;20393;-79
2023/06/29 05:55:20;;;;;;;6.47;3.50;;;21.20;99.90;;;;;;6120769;23;20372;-79
2023/06/29 05:57:45;;;;;;;3.60;3.30;;;21.30;99.90;;;;;;6122009;23;20159;-81
2023/06/29 06:00:12;;;;;;;3.50;3.30;;;21.40;99.90;;;;;;6119375;23;20695;-81
2023/06/29 06:02:39;;;;;;;4.40;3.20;;;21.50;99.90;;;;;;6120862;23;20175;-81
2023/06/29 06:05:07;;;;;;;3.53;3.23;;;21.50;99.90;;;;;;6147385;23;20381;-79
2023/06/29 06:07:33;;;;;;;3.53;3.23;;;21.60;99.90;;;;;;6118958;23;20425;-79
2023/06/29 06:10:00;;;;;;;5.10;3.20;;;21.70;99.90;;;;;;6146165;23;20919;-78
2023/06/29 06:12:26;;;;;;;3.93;3.63;;;21.70;99.90;;;;;;6146760;23;20405;-81
2023/06/29 06:14:52;;;;;;;3.70;3.40;;;21.80;99.90;;;;;;6119592;23;20594;-82
2023/06/29 06:17:17;;;;;;;3.67;3.33;;;21.90;99.90;;;;;;6145802;23;20184;-78
2023/06/29 06:19:43;;;;;;;3.10;2.80;;;21.90;99.90;;;;;;6146350;23;20487;-81
2023/06/29 06:22:09;;;;;;;3.60;3.30;;;21.90;99.90;;;;;;6141549;23;20692;-78
2023/06/29 06:24:35;;;;;;;3.20;2.97;;;22.00;99.90;;;;;;6143860;23;20238;-79
2023/06/29 06:27:01;;;;;;;4.97;3.50;;;22.10;99.90;;;;;;6142002;23;20175;-82
2023/06/29 06:29:27;;;;;;;3.20;2.93;;;22.10;99.90;;;;;;6142565;23;20390;-78
2023/06/29 06:31:53;;;;;;;8.33;7.13;;;22.20;99.90;;;;;;6114920;23;20424;-77
2023/06/29 06:34:19;;;;;;;6.60;4.93;;;22.30;99.90;;;;;;6140804;23;20922;-78
2023/06/29 06:36:47;;;;;;;3.37;2.83;;;22.40;99.90;;;;;;6114403;23;20418;-78
2023/06/29 06:39:14;;;;;;;3.53;2.57;;;22.50;99.90;;;;;;6143478;23;20723;-81
2023/06/29 06:41:40;;;;;;;3.87;3.13;;;22.40;99.90;;;;;;6117592;23;20415;-78
2023/06/29 06:44:06;;;;;;;5.33;2.90;;;22.50;99.90;;;;;;6143784;23;20372;-81
2023/06/29 06:46:32;;;;;;;5.40;3.00;;;22.50;99.90;;;;;;6146872;23;20896;-78
2023/06/29 06:48:57;;;;;;;4.07;2.87;;;22.60;99.90;;;;;;6118090;23;20209;-82
2023/06/29 06:51:25;;;;;;;2.90;2.43;;;22.60;99.90;;;;;;6144472;23;20205;-79
2023/06/29 06:53:50;;;;;;;3.97;3.50;;;22.60;99.90;;;;;;6143546;23;20198;-82
2023/06/29 06:56:16;;;;;;;4.10;3.20;;;22.70;99.90;;;;;;6143623;23;20888;-78
2023/06/29 06:58:42;;;;;;;4.00;3.10;;;22.70;99.90;;;;;;6118435;23;20374;-78
2023/06/29 07:01:08;;;;;;;5.00;2.77;;;22.80;99.90;;;;;;6144940;23;20793;-78
2023/06/29 07:03:34;;;;;;;3.53;3.23;;;22.80;99.90;;;;;;6147851;23;20158;-81
2023/06/29 07:05:59;;;;;;;4.97;3.37;;;22.90;99.90;;;;;;6146100;23;20190;-78
2023/06/29 07:08:25;;;;;;;6.93;4.73;;;22.80;99.90;;;;;;6145431;23;20159;-78
2023/06/29 07:10:51;;;;;;;5.80;3.30;;;22.90;99.90;;;;;;6106090;23;20194;-82
2023/06/29 07:13:18;;;;;;;3.20;3.00;;;22.90;99.90;;;;;;6117049;23;20197;-78
2023/06/29 07:15:45;;;;;;;3.00;2.80;;;22.90;99.90;;;;;;6116847;23;20412;-78
2023/06/29 07:18:11;;;;;;;4.63;2.87;;;23.00;99.90;;;;;;6092353;23;20881;-82
2023/06/29 07:20:37;;;;;;;4.63;2.80;;;23.00;99.90;;;;;;6117633;23;20736;-82
2023/06/29 07:23:02;;;;;;;4.53;2.63;;;23.10;99.90;;;;;;6117833;23;20472;-81
2023/06/29 07:25:28;;;;;;;4.73;2.93;;;23.10;99.90;;;;;;6118319;23;20364;-78
2023/06/29 07:27:54;;;;;;;5.20;3.17;;;23.10;99.90;;;;;;6094256;23;20186;-81
2023/06/29 07:30:20;;;;;;;2.73;2.53;;;23.10;99.90;;;;;;6144560;23;20392;-81
2023/06/29 07:32:46;;;;;;;4.10;2.63;;;23.30;99.90;;;;;;6146079;23;20432;-78
2023/06/29 07:35:13;;;;;;;3.20;2.73;;;23.40;99.90;;;;;;6143201;23;20670;-78
2023/06/29 07:37:38;;;;;;;3.17;2.77;;;23.60;99.90;;;;;;6144987;23;20459;-78
2023/06/29 07:40:05;;;;;;;4.87;3.30;;;23.70;99.90;;;;;;6143152;23;20388;-77
2023/06/29 07:42:31;;;;;;;15.13;11.20;;;23.80;99.90;;;;;;6143223;23;20310;-80
2023/06/29 07:44:57;;;;;;;3.50;3.17;;;24.00;99.90;;;;;;6135679;23;20775;-77
2023/06/29 07:47:22;;;;;;;3.70;2.97;;;24.10;99.90;;;;;;6096434;23;20213;-81
2023/06/29 07:49:48;;;;;;;4.53;2.77;;;24.20;99.90;;;;;;6105812;23;20642;-77
2023/06/29 07:52:14;;;;;;;2.70;2.50;;;24.30;99.90;;;;;;6140038;23;20186;-80
2023/06/29 07:54:40;;;;;;;2.63;2.50;;;24.30;99.90;;;;;;6140865;23;20237;-78
2023/06/29 07:57:06;;;;;;;2.70;2.50;;;24.30;99.90;;;;;;6117574;23;20416;-80
2023/06/29 07:59:31;;;;;;;5.30;3.30;;;24.40;99.90;;;;;;6145818;23;20241;-81
2023/06/29 08:01:57;;;;;;;2.40;2.20;;;24.40;99.90;;;;;;6143114;23;20269;-81
2023/06/29 08:04:22;;;;;;;2.87;2.67;;;24.50;99.90;;;;;;6115008;23;20197;-77
2023/06/29 08:06:49;;;;;;;2.90;2.67;;;24.60;99.90;;;;;;6116759;23;20230;-81
2023/06/29 08:09:15;;;;;;;4.43;3.17;;;24.70;99.90;;;;;;6145324;23;20155;-80
2023/06/29 08:11:40;;;;;;;2.83;2.57;;;24.70;99.90;;;;;;6117318;23;20741;-77
2023/06/29 08:14:06;;;;;;;4.90;3.13;;;24.80;99.90;;;;;;6117673;23;20448;-81
2023/06/29 08:16:32;;;;;;;7.30;2.20;;;24.90;99.90;;;;;;6145877;23;20522;-77
2023/06/29 08:18:59;;;;;;;3.73;2.60;;;25.00;99.90;;;;;;6146743;23;20155;-81
2023/06/29 08:21:24;;;;;;;3.20;2.63;;;25.00;99.90;;;;;;6146460;23;20416;-80
2023/06/29 08:23:50;;;;;;;4.10;2.90;;;25.10;99.90;;;;;;6146521;23;20409;-77
2023/06/29 08:26:17;;;;;;;3.03;2.50;;;25.20;99.70;;;;;;6143234;23;20182;-78
2023/06/29 08:28:43;;;;;;;2.83;2.57;;;25.20;99.40;;;;;;6144156;23;20394;-81
2023/06/29 08:31:09;;;;;;;39.27;31.17;;;25.30;99.00;;;;;;6143437;23;20409;-78
2023/06/29 08:33:34;;;;;;;3.57;2.90;;;25.30;99.00;;;;;;6146132;23;20441;-81
2023/06/29 08:36:00;;;;;;;3.60;2.70;;;25.30;98.70;;;;;;6117329;23;20187;-81
2023/06/29 08:38:26;;;;;;;2.60;2.40;;;25.40;98.50;;;;;;6143481;23;20151;-77
2023/06/29 08:40:52;;;;;;;5.40;3.17;;;25.40;98.70;;;;;;6145265;23;20183;-77
2023/06/29 08:43:18;;;;;;;3.47;3.00;;;25.50;98.70;;;;;;6144518;23;20147;-78
2023/06/29 08:45:45;;;;;;;3.20;3.00;;;25.60;98.80;;;;;;6142932;23;20401;-81
2023/06/29 08:48:13;;;;;;;3.37;2.67;;;25.60;98.50;;;;;;6141742;23;20461;-77
2023/06/29 08:50:44;;;;;;;3.20;2.73;;;25.70;98.60;;;;;;6114513;23;20480;-78
2023/06/29 08:53:12;;;;;;;3.53;2.63;;;25.70;98.20;;;;;;6116575;23;20516;-78
2023/06/29 08:55:39;;;;;;;2.90;2.70;;;25.70;98.40;;;;;;6143849;23;20420;-81
2023/06/29 08:58:05;;;;;;;3.47;3.20;;;25.70;98.40;;;;;;6142226;23;20398;-77
2023/06/29 09:00:31;;;;;;;3.30;2.77;;;25.80;98.50;;;;;;6142779;23;20384;-81
2023/06/29 09:02:57;;;;;;;3.80;3.40;;;25.80;98.20;;;;;;6144434;23;20396;-81
2023/06/29 09:05:23;;;;;;;4.40;3.13;;;25.80;98.50;;;;;;6142636;23;20199;-80
2023/06/29 09:07:50;;;;;;;3.40;3.10;;;25.80;98.40;;;;;;6144821;23;20468;-77
2023/06/29 09:10:16;;;;;;;4.23;3.03;;;25.90;98.00;;;;;;6118907;23;20590;-78
2023/06/29 09:12:41;;;;;;;5.37;3.40;;;25.90;98.00;;;;;;6144073;23;20850;-81
2023/06/29 09:15:10;;;;;;;2.57;2.40;;;25.90;98.20;;;;;;6116108;23;20428;-78
2023/06/29 09:17:36;;;;;;;3.63;3.33;;;26.00;97.70;;;;;;6141705;23;20175;-78
2023/06/29 09:20:13;;;;;;;3.27;2.77;;;26.00;97.10;;;;;;6115489;23;20433;-81
2023/06/29 09:22:39;;;;;;;3.03;2.70;;;26.00;97.30;;;;;;6141732;23;20893;-77
2023/06/29 09:25:13;;;;;;;3.93;3.63;;;26.00;97.70;;;;;;6140579;23;20377;-81
2023/06/29 09:27:39;;;;;;;3.03;2.83;;;26.10;97.50;;;;;;6143359;23;20421;-80
2023/06/29 09:30:05;;;;;;;4.27;2.90;;;26.20;97.40;;;;;;6141714;23;20865;-77
2023/06/29 09:32:35;;;;;;;2.93;2.50;;;26.30;97.20;;;;;;6115785;23;20409;-81
2023/06/29 09:35:06;;;;;;;3.60;3.27;;;26.30;96.40;;;;;;6116287;23;20440;-81
2023/06/29 09:37:33;;;;;;;3.50;3.20;;;26.30;96.70;;;;;;6144316;23;20460;-78
2023/06/29 09:39:59;;;;;;;3.20;3.00;;;26.30;96.50;;;;;;6140871;23;20750;-81
2023/06/29 09:42:28;;;;;;;3.10;2.80;;;26.40;96.90;;;;;;6114419;23;20460;-81
2023/06/29 09:45:01;;;;;;;2.67;2.47;;;26.50;96.90;;;;;;6114176;23;20559;-80
2023/06/29 09:47:26;;;;;;;2.80;2.40;;;26.40;96.70;;;;;;6140668;23;20400;-77
2023/06/29 09:49:52;;;;;;;4.50;4.20;;;26.30;98.50;;;;;;6141997;23;20366;-81
2023/06/29 09:52:19;;;;;;;3.13;2.83;;;26.30;97.30;;;;;;6145381;23;20242;-81
2023/06/29 09:54:44;;;;;;;3.00;2.70;;;26.40;96.50;;;;;;6143504;23;20429;-81
2023/06/29 09:57:11;;;;;;;3.40;3.10;;;26.50;96.10;;;;;;6144249;23;20413;-78
2023/06/29 09:59:44;;;;;;;3.60;2.77;;;26.60;96.00;;;;;;6141850;23;20831;-81
2023/06/29 10:02:10;;;;;;;2.70;2.50;;;26.60;95.70;;;;;;6115095;23;20776;-78
2023/06/29 10:04:38;;;;;;;3.40;2.70;;;26.70;95.70;;;;;;6144119;23;20375;-78
2023/06/29 10:07:15;;;;;;;2.93;2.63;;;26.70;95.70;;;;;;6142350;23;20613;-80
2023/06/29 10:09:45;;;;;;;3.30;2.30;;;26.70;96.00;;;;;;6140212;23;20390;-77
2023/06/29 10:12:12;;;;;;;2.97;2.77;;;26.80;95.90;;;;;;6143861;23;20904;-80
2023/06/29 10:14:41;;;;;;;3.03;2.80;;;26.90;95.60;;;;;;6143217;23;20790;-81
2023/06/29 10:17:11;;;;;;;2.73;2.30;;;26.90;95.80;;;;;;6117755;23;20416;-78
2023/06/29 10:19:39;;;;;;;3.07;2.63;;;27.00;95.80;;;;;;6143003;23;20450;-77
2023/06/29 10:22:17;;;;;;;5.10;2.57;;;27.10;95.70;;;;;;6117659;23;20443;-81
2023/06/29 10:24:48;;;;;;;3.30;2.63;;;27.20;95.40;;;;;;6144277;23;20703;-78
2023/06/29 10:27:16;;;;;;;2.53;2.33;;;27.30;95.20;;;;;;6116309;23;20935;-81
2023/06/29 10:29:47;;;;;;;5.40;2.60;;;27.20;95.00;;;;;;6143138;23;20683;-81
2023/06/29 10:32:36;;;;;;;3.67;2.67;;;27.30;95.20;;;;;;6143927;23;20547;-78
2023/06/29 10:35:07;;;;;;;6.23;2.53;;;27.40;94.50;;;;;;6144296;23;20444;-78
2023/06/29 10:37:37;;;;;;;4.17;2.80;;;27.30;94.50;;;;;;6117928;23;20990;-78
2023/06/29 10:40:12;;;;;;;8.10;2.63;;;27.30;94.60;;;;;;6144176;23;20394;-78
2023/06/29 10:42:37;;;;;;;3.30;1.80;;;27.30;94.60;;;;;;6139698;23;20405;-80
2023/06/29 10:45:23;;;;;;;2.40;2.20;;;27.40;94.30;;;;;;6142117;23;20841;-77
2023/06/29 10:47:58;;;;;;;1.97;1.83;;;27.40;94.20;;;;;;6113830;23;20718;-81
2023/06/29 10:50:30;;;;;;;2.47;2.20;;;27.50;94.40;;;;;;6140052;23;20963;-77
2023/06/29 10:52:59;;;;;;;3.83;2.10;;;27.50;93.80;;;;;;6141035;23;20787;-81
2023/06/29 10:55:45;;;;;;;1.80;1.70;;;27.50;93.50;;;;;;6144222;23;20387;-81
2023/06/29 10:58:18;;;;;;;2.53;2.33;;;27.60;93.40;;;;;;6107032;23;20438;-81
2023/06/29 11:00:44;;;;;;;2.30;2.10;;;27.50;93.60;;;;;;6116945;23;20779;-78
2023/06/29 11:03:11;;;;;;;4.10;2.43;;;27.50;93.80;;;;;;6141529;23;20951;-81
2023/06/29 11:05:37;;;;;;;2.60;2.40;;;27.50;93.90;;;;;;6114665;23;20391;-81
2023/06/29 11:08:06;;;;;;;4.20;3.20;;;27.50;94.10;;;;;;6141934;23;20933;-81
2023/06/29 11:10:32;;;;;;;2.77;2.47;;;27.50;94.40;;;;;;6138090;23;20401;-79
2023/06/29 11:12:58;;;;;;;2.87;2.67;;;27.30;95.30;;;;;;6139265;23;20473;-77
2023/06/29 11:15:26;;;;;;;3.00;2.80;;;27.40;94.80;;;;;;6109676;23;20399;-77
2023/06/29 11:17:53;;;;;;;2.83;2.63;;;27.40;94.90;;;;;;6137751;23;20382;-75
2023/06/29 11:20:20;;;;;;;2.60;2.40;;;27.30;95.50;;;;;;6134629;23;20389;-77
2023/06/29 11:22:46;;;;;;;2.80;2.60;;;27.40;94.50;;;;;;6137169;23;21086;-77
2023/06/29 11:25:14;;;;;;;2.40;2.20;;;27.50;94.50;;;;;;6109789;23;20397;-77
2023/06/29 11:27:41;;;;;;;2.37;2.23;;;27.60;94.80;;;;;;6136533;23;20402;-76
2023/06/29 11:30:09;;;;;;;3.13;2.83;;;27.70;94.40;;;;;;6138062;23;20738;-77
2023/06/29 11:32:39;;;;;;;2.70;2.43;;;27.60;95.50;;;;;;6113879;23;20429;-77
2023/06/29 11:35:07;;;;;;;2.80;2.60;;;27.50;95.80;;;;;;6114096;23;20958;-75
2023/06/29 11:37:35;;;;;;;2.03;1.93;;;27.40;96.30;;;;;;6141393;23;20700;-76
2023/06/29 11:40:10;;;;;;;3.80;2.60;;;27.40;95.50;;;;;;6142537;23;20800;-78
2023/06/29 11:42:36;;;;;;;2.40;2.20;;;27.50;94.80;;;;;;6144738;23;20400;-77
2023/06/29 11:45:09;;;;;;;4.60;2.50;;;27.60;94.30;;;;;;6143474;23;20429;-76
2023/06/29 11:47:35;;;;;;;2.80;2.60;;;27.60;94.40;;;;;;6141842;23;20928;-77
2023/06/29 11:50:04;;;;;;;3.10;2.50;;;27.70;94.50;;;;;;6140836;23;20370;-76
2023/06/29 11:52:31;;;;;;;2.80;2.60;;;27.70;95.10;;;;;;6140344;23;20437;-76
2023/06/29 11:55:06;;;;;;;2.23;2.13;;;27.80;94.20;;;;;;6140280;23;20430;-74
2023/06/29 11:57:32;;;;;;;2.73;2.53;;;27.80;94.50;;;;;;6114612;23;20418;-75
2023/06/29 11:59:58;;;;;;;3.30;2.80;;;27.90;94.30;;;;;;6116498;23;20396;-75
2023/06/29 12:02:26;;;;;;;2.83;2.63;;;28.00;94.00;;;;;;6141920;23;20894;-74
2023/06/29 12:04:58;;;;;;;3.10;2.87;;;28.00;94.00;;;;;;6140114;23;20162;-78
2023/06/29 12:07:45;;;;;;;2.67;2.47;;;27.90;95.80;;;;;;6141372;23;20408;-78
2023/06/29 12:10:21;;;;;;;2.73;1.93;;;27.50;96.50;;;;;;6141850;23;20468;-77
2023/06/29 12:12:49;;;;;;;2.67;2.43;;;27.50;95.30;;;;;;6140716;23;20873;-78
2023/06/29 12:15:19;;;;;;;3.40;3.10;;;27.60;95.30;;;;;;6114903;23;20475;-78
2023/06/29 12:17:48;;;;;;;4.90;2.90;;;27.70;95.60;;;;;;6117239;23;20399;-76
2023/06/29 12:20:21;;;;;;;3.83;3.23;;;27.70;95.70;;;;;;6116434;23;20390;-76
2023/06/29 12:22:49;;;;;;;7.90;3.97;;;27.60;96.10;;;;;;6113786;23;20398;-76
2023/06/29 12:25:20;;;;;;;4.30;3.00;;;27.60;95.30;;;;;;6136566;23;20385;-77
2023/06/29 12:27:47;;;;;;;5.00;3.60;;;27.70;94.30;;;;;;6112151;23;20460;-78
2023/06/29 12:30:15;;;;;;;4.40;3.37;;;27.50;95.40;;;;;;6139710;23;20371;-79
2023/06/29 12:32:42;;;;;;;3.00;2.80;;;27.60;94.70;;;;;;6140555;23;21140;-78
2023/06/29 12:35:08;;;;;;;2.90;2.70;;;27.80;94.60;;;;;;6116307;23;20434;-79
2023/06/29 12:37:33;;;;;;;4.03;2.87;;;27.90;94.10;;;;;;6113628;23;20436;-80
2023/06/29 12:39:59;;;;;;;3.17;2.87;;;27.80;95.60;;;;;;6142731;23;20605;-80
2023/06/29 12:42:25;;;;;;;4.57;2.80;;;27.90;95.70;;;;;;6115869;23;20382;-81
2023/06/29 12:44:51;;;;;;;4.60;3.00;;;28.00;93.60;;;;;;6140071;23;20584;-81